sensor_id;sensor_type;location;lat;lon;timestamp;pressure;altitude;pressure_sealevel;temperature;humidity
51986;BME280;38002;53.296;6.600;2022-09-19T08:52:47;101991.50;;;16.03;78.28
51986;BME280;38002;53.296;6.600;2022-09-19T08:57:54;101982.75;;;16.32;78.11
51986;BME280;38002;53.296;6.600;2022-09-19T09:03:04;101992.19;;;16.54;76.40
51986;BME280;38002;53.296;6.600;2022-09-19T09:14:43;101994.09;;;16.69;70.21
51986;BME280;38002;53.296;6.600;2022-09-19T09:33:35;102004.00;;;16.95;75.58
51986;BME280;38002;53.296;6.600;2022-09-19T09:38:43;102012.63;;;16.59;75.33
51986;BME280;38002;53.296;6.600;2022-09-19T09:49:09;102026.28;;;15.78;76.29
51986;BME280;38002;53.296;6.600;2022-09-19T10:00:09;102033.78;;;15.34;77.23
51986;BME280;38002;53.296;6.600;2022-09-19T10:05:30;102035.03;;;15.40;74.87
51986;BME280;38002;53.296;6.600;2022-09-19T10:10:33;102026.06;;;15.64;76.98
51986;BME280;38002;53.296;6.600;2022-09-19T10:15:37;102036.75;;;15.83;76.55
51986;BME280;38002;53.296;6.600;2022-09-19T10:20:46;102035.72;;;15.92;75.77
51986;BME280;38002;53.296;6.600;2022-09-19T10:25:51;102046.38;;;15.95;75.37
51986;BME280;38002;53.296;6.600;2022-09-19T10:30:58;102046.69;;;15.92;72.94
51986;BME280;38002;53.296;6.600;2022-09-19T10:36:04;102048.75;;;15.90;73.59
51986;BME280;38002;53.296;6.600;2022-09-19T10:41:07;102059.31;;;15.69;74.63
51986;BME280;38002;53.296;6.600;2022-09-19T10:46:15;102052.63;;;15.37;75.29
51986;BME280;38002;53.296;6.600;2022-09-19T10:51:17;102053.06;;;15.17;75.94
51986;BME280;38002;53.296;6.600;2022-09-19T10:56:27;102051.13;;;15.09;76.55
51986;BME280;38002;53.296;6.600;2022-09-19T11:01:28;102050.91;;;15.36;76.78
51986;BME280;38002;53.296;6.600;2022-09-19T11:06:30;102054.22;;;15.82;76.48
51986;BME280;38002;53.296;6.600;2022-09-19T11:11:36;102046.22;;;16.53;75.29
51986;BME280;38002;53.296;6.600;2022-09-19T11:22:43;102050.38;;;17.84;71.58
51986;BME280;38002;53.296;6.600;2022-09-19T11:55:18;102040.28;;;20.14;67.18
51986;BME280;38002;53.296;6.600;2022-09-19T12:00:22;102047.28;;;20.31;66.20
51986;BME280;38002;53.296;6.600;2022-09-19T12:10:56;102055.28;;;19.54;60.25
51986;BME280;38002;53.296;6.600;2022-09-19T12:16:05;102060.28;;;19.51;62.61
51986;BME280;38002;53.296;6.600;2022-09-19T12:21:11;102061.28;;;19.93;65.01
51986;BME280;38002;53.296;6.600;2022-09-19T12:26:18;102054.75;;;20.16;61.56
51986;BME280;38002;53.296;6.600;2022-09-19T12:31:29;102057.09;;;20.33;60.54
51986;BME280;38002;53.296;6.600;2022-09-19T12:36:59;102060.09;;;20.60;62.36
51986;BME280;38002;53.296;6.600;2022-09-19T12:42:04;102060.75;;;20.83;55.78
51986;BME280;38002;53.296;6.600;2022-09-19T12:58:19;102074.28;;;20.99;57.98
51986;BME280;38002;53.296;6.600;2022-09-19T13:03:30;102089.25;;;20.62;60.72
51986;BME280;38002;53.296;6.600;2022-09-19T13:08:40;102094.09;;;20.03;61.21
51986;BME280;38002;53.296;6.600;2022-09-19T13:14:09;102082.84;;;19.83;59.79
51986;BME280;38002;53.296;6.600;2022-09-19T13:19:13;102078.16;;;19.84;62.72
51986;BME280;38002;53.296;6.600;2022-09-19T13:24:36;102089.50;;;19.74;62.08
51986;BME280;38002;53.296;6.600;2022-09-19T13:35:30;102100.09;;;19.04;62.50
51986;BME280;38002;53.296;6.600;2022-09-19T13:50:56;102128.81;;;17.24;65.53
51986;BME280;38002;53.296;6.600;2022-09-19T13:56:00;102120.59;;;16.76;66.31
51986;BME280;38002;53.296;6.600;2022-09-19T14:06:19;102112.88;;;16.63;68.97
51986;BME280;38002;53.296;6.600;2022-09-19T14:11:29;102111.31;;;17.01;68.26
51986;BME280;38002;53.296;6.600;2022-09-19T14:16:33;102113.72;;;17.12;67.51
51986;BME280;38002;53.296;6.600;2022-09-19T14:26:59;102107.88;;;16.99;66.02
51986;BME280;38002;53.296;6.600;2022-09-19T14:49:11;102130.88;;;17.06;60.54
51986;BME280;38002;53.296;6.600;2022-09-19T14:59:44;102116.13;;;16.83;64.26
51986;BME280;38002;53.296;6.600;2022-09-19T15:04:47;102128.34;;;16.72;64.51
51986;BME280;38002;53.296;6.600;2022-09-19T15:09:49;102117.31;;;16.56;64.71
51986;BME280;38002;53.296;6.600;2022-09-19T15:14:53;102115.22;;;16.34;64.07
51986;BME280;38002;53.296;6.600;2022-09-19T15:19:59;102120.63;;;16.10;64.69
51986;BME280;38002;53.296;6.600;2022-09-19T15:25:29;102128.97;;;15.92;64.28
51986;BME280;38002;53.296;6.600;2022-09-19T15:30:33;102115.59;;;15.81;64.66
51986;BME280;38002;53.296;6.600;2022-09-19T15:35:39;102121.19;;;15.71;64.61
51986;BME280;38002;53.296;6.600;2022-09-19T15:40:41;102126.66;;;15.63;64.56
51986;BME280;38002;53.296;6.600;2022-09-19T15:45:46;102130.88;;;15.58;63.67
51986;BME280;38002;53.296;6.600;2022-09-19T15:50:51;102130.81;;;15.50;63.92
51986;BME280;38002;53.296;6.600;2022-09-19T15:55:59;102125.09;;;15.35;63.95
51986;BME280;38002;53.296;6.600;2022-09-19T16:01:29;102139.06;;;15.24;63.12
51986;BME280;38002;53.296;6.600;2022-09-19T16:06:37;102125.09;;;15.09;63.65
51986;BME280;38002;53.296;6.600;2022-09-19T16:11:56;102135.53;;;15.06;64.22
51986;BME280;38002;53.296;6.600;2022-09-19T16:16:57;102138.41;;;15.04;64.07
51986;BME280;38002;53.296;6.600;2022-09-19T16:21:59;102153.19;;;15.11;64.21
51986;BME280;38002;53.296;6.600;2022-09-19T16:27:01;102165.16;;;15.10;65.04
51986;BME280;38002;53.296;6.600;2022-09-19T16:32:03;102169.78;;;14.84;65.99
51986;BME280;38002;53.296;6.600;2022-09-19T16:37:04;102167.81;;;14.41;68.89
51986;BME280;38002;53.296;6.600;2022-09-19T16:47:20;102168.59;;;14.06;67.95
51986;BME280;38002;53.296;6.600;2022-09-19T16:52:30;102155.91;;;14.05;69.06
51986;BME280;38002;53.296;6.600;2022-09-19T16:57:31;102157.06;;;14.02;68.66
51986;BME280;38002;53.296;6.600;2022-09-19T17:02:31;102167.88;;;14.04;69.50
51986;BME280;38002;53.296;6.600;2022-09-19T17:07:32;102153.78;;;13.99;69.12
51986;BME280;38002;53.296;6.600;2022-09-19T17:12:32;102161.88;;;13.91;69.61
51986;BME280;38002;53.296;6.600;2022-09-19T17:17:33;102166.72;;;13.79;69.52
51986;BME280;38002;53.296;6.600;2022-09-19T17:22:34;102167.06;;;13.67;68.94
51986;BME280;38002;53.296;6.600;2022-09-19T17:27:35;102187.22;;;13.56;69.35
51986;BME280;38002;53.296;6.600;2022-09-19T17:32:35;102180.22;;;13.44;69.30
51986;BME280;38002;53.296;6.600;2022-09-19T17:37:38;102184.13;;;13.32;69.40
51986;BME280;38002;53.296;6.600;2022-09-19T17:42:39;102180.41;;;13.23;69.53
51986;BME280;38002;53.296;6.600;2022-09-19T17:47:42;102182.16;;;13.14;69.05
51986;BME280;38002;53.296;6.600;2022-09-19T17:52:43;102187.59;;;13.05;69.38
51986;BME280;38002;53.296;6.600;2022-09-19T17:57:45;102190.19;;;12.97;68.99
51986;BME280;38002;53.296;6.600;2022-09-19T18:02:46;102183.00;;;12.86;69.60
51986;BME280;38002;53.296;6.600;2022-09-19T18:08:05;102195.38;;;12.81;68.82
51986;BME280;38002;53.296;6.600;2022-09-19T18:13:06;102187.06;;;12.72;68.72
51986;BME280;38002;53.296;6.600;2022-09-19T18:18:08;102194.09;;;12.65;68.73
51986;BME280;38002;53.296;6.600;2022-09-19T18:23:10;102197.09;;;12.53;67.61
51986;BME280;38002;53.296;6.600;2022-09-19T18:28:11;102202.84;;;12.50;68.57
51986;BME280;38002;53.296;6.600;2022-09-19T18:33:12;102209.59;;;12.46;68.89
51986;BME280;38002;53.296;6.600;2022-09-19T18:38:13;102219.06;;;12.42;68.77
51986;BME280;38002;53.296;6.600;2022-09-19T18:43:13;102224.94;;;12.37;69.12
51986;BME280;38002;53.296;6.600;2022-09-19T18:48:14;102227.91;;;12.34;69.16
51986;BME280;38002;53.296;6.600;2022-09-19T18:53:15;102226.47;;;12.30;68.99
51986;BME280;38002;53.296;6.600;2022-09-19T18:58:17;102222.31;;;12.26;69.65
51986;BME280;38002;53.296;6.600;2022-09-19T19:03:17;102224.59;;;12.21;69.41
51986;BME280;38002;53.296;6.600;2022-09-19T19:08:21;102224.75;;;12.19;69.60
51986;BME280;38002;53.296;6.600;2022-09-19T19:13:21;102225.16;;;12.15;69.95
51986;BME280;38002;53.296;6.600;2022-09-19T19:18:21;102221.13;;;12.09;69.92
51986;BME280;38002;53.296;6.600;2022-09-19T19:23:24;102227.97;;;12.04;70.00
51986;BME280;38002;53.296;6.600;2022-09-19T19:28:25;102223.69;;;12.01;70.35
51986;BME280;38002;53.296;6.600;2022-09-19T19:33:26;102226.28;;;12.03;70.57
51986;BME280;38002;53.296;6.600;2022-09-19T19:38:32;102233.59;;;12.02;72.26
51986;BME280;38002;53.296;6.600;2022-09-19T19:43:33;102215.63;;;12.00;70.68
51986;BME280;38002;53.296;6.600;2022-09-19T19:48:35;102228.88;;;12.14;71.12
51986;BME280;38002;53.296;6.600;2022-09-19T19:53:36;102225.88;;;12.17;71.21
51986;BME280;38002;53.296;6.600;2022-09-19T19:58:36;102230.03;;;12.21;71.35
51986;BME280;38002;53.296;6.600;2022-09-19T20:03:37;102238.97;;;12.23;71.24
51986;BME280;38002;53.296;6.600;2022-09-19T20:08:38;102241.28;;;12.27;71.58
51986;BME280;38002;53.296;6.600;2022-09-19T20:13:39;102252.75;;;12.31;71.25
51986;BME280;38002;53.296;6.600;2022-09-19T20:18:42;102255.06;;;12.36;71.39
51986;BME280;38002;53.296;6.600;2022-09-19T20:23:44;102265.44;;;12.42;71.47
51986;BME280;38002;53.296;6.600;2022-09-19T20:28:50;102257.38;;;12.40;72.01
51986;BME280;38002;53.296;6.600;2022-09-19T20:33:51;102263.13;;;12.37;72.44
51986;BME280;38002;53.296;6.600;2022-09-19T20:38:53;102259.94;;;12.32;73.56
51986;BME280;38002;53.296;6.600;2022-09-19T20:43:54;102258.03;;;12.23;73.63
51986;BME280;38002;53.296;6.600;2022-09-19T20:48:55;102267.50;;;12.19;73.81
51986;BME280;38002;53.296;6.600;2022-09-19T20:53:56;102255.03;;;12.16;74.52
51986;BME280;38002;53.296;6.600;2022-09-19T20:58:58;102257.88;;;12.15;75.04
51986;BME280;38002;53.296;6.600;2022-09-19T21:03:59;102261.88;;;12.11;75.32
51986;BME280;38002;53.296;6.600;2022-09-19T21:09:00;102261.88;;;12.11;75.43
51986;BME280;38002;53.296;6.600;2022-09-19T21:14:01;102257.13;;;12.13;75.95
51986;BME280;38002;53.296;6.600;2022-09-19T21:19:02;102256.03;;;12.15;76.21
51986;BME280;38002;53.296;6.600;2022-09-19T21:24:02;102255.28;;;12.13;76.39
51986;BME280;38002;53.296;6.600;2022-09-19T21:29:06;102260.16;;;12.10;76.71
51986;BME280;38002;53.296;6.600;2022-09-19T21:34:07;102256.97;;;12.05;76.64
51986;BME280;38002;53.296;6.600;2022-09-19T21:39:12;102257.53;;;11.99;76.99
51986;BME280;38002;53.296;6.600;2022-09-19T21:44:12;102262.66;;;11.92;77.10
51986;BME280;38002;53.296;6.600;2022-09-19T21:49:13;102267.81;;;11.86;77.38
51986;BME280;38002;53.296;6.600;2022-09-19T21:54:13;102260.44;;;11.76;77.09
51986;BME280;38002;53.296;6.600;2022-09-19T21:59:14;102270.84;;;11.71;77.34
51986;BME280;38002;53.296;6.600;2022-09-19T22:04:17;102271.13;;;11.68;77.47
51986;BME280;38002;53.296;6.600;2022-09-19T22:09:17;102269.66;;;11.64;77.80
51986;BME280;38002;53.296;6.600;2022-09-19T22:14:18;102279.13;;;11.60;77.88
51986;BME280;38002;53.296;6.600;2022-09-19T22:19:19;102274.91;;;11.56;78.04
51986;BME280;38002;53.296;6.600;2022-09-19T22:24:19;102272.44;;;11.53;78.06
51986;BME280;38002;53.296;6.600;2022-09-19T22:29:22;102272.72;;;11.50;78.10
51986;BME280;38002;53.296;6.600;2022-09-19T22:34:23;102290.19;;;11.48;78.17
51986;BME280;38002;53.296;6.600;2022-09-19T22:39:23;102285.88;;;11.45;78.05
51986;BME280;38002;53.296;6.600;2022-09-19T22:44:24;102285.00;;;11.45;78.14
51986;BME280;38002;53.296;6.600;2022-09-19T22:49:25;102282.44;;;11.43;78.05
51986;BME280;38002;53.296;6.600;2022-09-19T22:54:25;102275.50;;;11.39;77.89
51986;BME280;38002;53.296;6.600;2022-09-19T22:59:27;102281.50;;;11.33;77.91
51986;BME280;38002;53.296;6.600;2022-09-19T23:04:28;102279.28;;;11.27;77.83
51986;BME280;38002;53.296;6.600;2022-09-19T23:09:28;102280.81;;;11.20;77.94
51986;BME280;38002;53.296;6.600;2022-09-19T23:14:29;102279.88;;;11.10;77.97
51986;BME280;38002;53.296;6.600;2022-09-19T23:19:30;102284.41;;;11.00;78.09
51986;BME280;38002;53.296;6.600;2022-09-19T23:24:30;102295.31;;;10.88;78.35
51986;BME280;38002;53.296;6.600;2022-09-19T23:29:31;102297.22;;;10.77;78.21
51986;BME280;38002;53.296;6.600;2022-09-19T23:34:35;102293.13;;;10.71;78.44
51986;BME280;38002;53.296;6.600;2022-09-19T23:39:36;102294.66;;;10.64;78.59
51986;BME280;38002;53.296;6.600;2022-09-19T23:44:36;102302.31;;;10.59;78.18
51986;BME280;38002;53.296;6.600;2022-09-19T23:49:37;102295.41;;;10.55;78.28
51986;BME280;38002;53.296;6.600;2022-09-19T23:54:37;102294.81;;;10.52;78.13
51986;BME280;38002;53.296;6.600;2022-09-19T23:59:38;102290.22;;;10.52;78.46
